EXS6L LEGE-EGKK
Flight info
| Callsign | EXS6L |
|---|---|
| Flight time | 1h 41m |
| Altitude | 34000 |
| Route | GEANT DCT ROCAN DCT TOU DCT AGN DCT SECHE DCT UVELI DCT CNA DCT MANAK DCT EPAPU UM184 EKRAS UT507 REVTU UP88 VASUX |
| Aircraft | A321/M-SDE3FGHIRWY/LB1 |
Departure
| Time | 2026-05-06 18:46 |
|---|---|
| Airport | Girona-Costa Brava Airport (LEGE) |
Arrival
| Time | 2026-05-06 20:27 |
|---|---|
| Airport | London Gatwick Airport (EGKK) |
| Time | Latitude | Longitude | Altitude | Speed | Heading |
|---|---|---|---|---|---|
| 2026-05-06 18:08 | 41.89938 | 2.76407 | 424 ft | 0 kts | 195° |
| 2026-05-06 18:41 | 41.89935 | 2.76406 | 424 ft | 2 kts | 196° |
| 2026-05-06 18:41 | 41.89903 | 2.76392 | 415 ft | 6 kts | 204° |
| 2026-05-06 18:41 | 41.89893 | 2.76331 | 414 ft | 8 kts | 287° |
| 2026-05-06 18:42 | 41.89909 | 2.76255 | 416 ft | 7 kts | 285° |
| 2026-05-06 18:42 | 41.89886 | 2.76208 | 424 ft | 9 kts | 196° |
| 2026-05-06 18:42 | 41.89806 | 2.76177 | 419 ft | 13 kts | 196° |
| 2026-05-06 18:42 | 41.89731 | 2.76148 | 418 ft | 10 kts | 196° |
| 2026-05-06 18:43 | 41.89668 | 2.76124 | 413 ft | 10 kts | 195° |
| 2026-05-06 18:43 | 41.89604 | 2.76100 | 413 ft | 9 kts | 199° |
| 2026-05-06 18:43 | 41.89564 | 2.76036 | 411 ft | 9 kts | 240° |
| 2026-05-06 18:43 | 41.89529 | 2.75952 | 410 ft | 11 kts | 240° |
| 2026-05-06 18:44 | 41.89515 | 2.75861 | 413 ft | 7 kts | 284° |
| 2026-05-06 18:44 | 41.89536 | 2.75845 | 415 ft | 2 kts | 360° |
| 2026-05-06 18:44 | 41.89542 | 2.75848 | 415 ft | 0 kts | 14° |
| 2026-05-06 18:44 | 41.89543 | 2.75848 | 415 ft | 0 kts | 14° |
| 2026-05-06 18:45 | 41.89615 | 2.75874 | 417 ft | 37 kts | 15° |
| 2026-05-06 18:45 | 41.90112 | 2.76062 | 428 ft | 107 kts | 15° |
| 2026-05-06 18:45 | 41.91011 | 2.76402 | 490 ft | 156 kts | 16° |
| 2026-05-06 18:45 | 41.91694 | 2.76666 | 950 ft | 152 kts | 15° |
| 2026-05-06 18:46 | 41.93085 | 2.77183 | 1780 ft | 163 kts | 15° |
| 2026-05-06 18:46 | 41.94234 | 2.77605 | 2091 ft | 181 kts | 16° |
| 2026-05-06 18:46 | 41.95515 | 2.78099 | 2345 ft | 201 kts | 17° |
| 2026-05-06 18:46 | 41.96918 | 2.78645 | 2608 ft | 218 kts | 17° |
| 2026-05-06 18:47 | 41.98408 | 2.79228 | 3025 ft | 227 kts | 17° |
| 2026-05-06 18:47 | 41.99922 | 2.79830 | 3661 ft | 228 kts | 17° |
| 2026-05-06 18:47 | 42.01426 | 2.80440 | 4293 ft | 230 kts | 17° |
| 2026-05-06 18:47 | 42.02962 | 2.81063 | 4937 ft | 231 kts | 16° |
| 2026-05-06 18:48 | 42.04509 | 2.81673 | 5552 ft | 233 kts | 14° |
| 2026-05-06 18:48 | 42.06092 | 2.82293 | 6161 ft | 235 kts | 14° |
| 2026-05-06 18:48 | 42.07677 | 2.82555 | 6724 ft | 233 kts | 347° |
| 2026-05-06 18:48 | 42.09071 | 2.81544 | 7237 ft | 231 kts | 310° |
| 2026-05-06 18:49 | 42.09743 | 2.79522 | 7420 ft | 252 kts | 276° |
| 2026-05-06 18:49 | 42.09798 | 2.77085 | 7884 ft | 267 kts | 268° |
| 2026-05-06 18:49 | 42.09662 | 2.74567 | 8566 ft | 272 kts | 264° |
| 2026-05-06 18:49 | 42.09365 | 2.72038 | 9343 ft | 275 kts | 258° |
| 2026-05-06 18:50 | 42.09069 | 2.69494 | 10143 ft | 275 kts | 268° |
| 2026-05-06 18:50 | 42.09184 | 2.66894 | 10671 ft | 286 kts | 280° |
| 2026-05-06 18:50 | 42.09784 | 2.64239 | 10905 ft | 308 kts | 294° |
| 2026-05-06 18:50 | 42.10972 | 2.61743 | 11194 ft | 325 kts | 310° |
| 2026-05-06 18:51 | 42.12516 | 2.59465 | 11743 ft | 333 kts | 311° |
| 2026-05-06 18:51 | 42.14071 | 2.57128 | 12403 ft | 337 kts | 310° |
| 2026-05-06 18:51 | 42.15628 | 2.54745 | 13158 ft | 338 kts | 310° |
| 2026-05-06 18:51 | 42.17164 | 2.52370 | 14051 ft | 335 kts | 309° |
| 2026-05-06 18:52 | 42.18698 | 2.49993 | 14758 ft | 337 kts | 309° |
| 2026-05-06 18:52 | 42.20246 | 2.47602 | 15403 ft | 340 kts | 310° |
| 2026-05-06 18:52 | 42.21979 | 2.45405 | 16019 ft | 344 kts | 319° |
| 2026-05-06 18:52 | 42.23836 | 2.43354 | 16654 ft | 347 kts | 319° |
| 2026-05-06 18:53 | 42.25710 | 2.41278 | 17289 ft | 350 kts | 319° |
| 2026-05-06 18:53 | 42.27598 | 2.39180 | 17922 ft | 353 kts | 319° |
| 2026-05-06 18:53 | 42.29501 | 2.37063 | 18524 ft | 356 kts | 319° |
| 2026-05-06 18:53 | 42.31424 | 2.34926 | 19082 ft | 359 kts | 319° |
| 2026-05-06 18:54 | 42.33356 | 2.32781 | 19636 ft | 361 kts | 319° |
| 2026-05-06 18:54 | 42.35307 | 2.30614 | 20103 ft | 367 kts | 319° |
| 2026-05-06 18:54 | 42.37348 | 2.28449 | 20373 ft | 377 kts | 323° |
| 2026-05-06 18:54 | 42.39534 | 2.26437 | 20819 ft | 382 kts | 324° |
| 2026-05-06 18:55 | 42.41759 | 2.24459 | 21304 ft | 385 kts | 325° |
| 2026-05-06 18:55 | 42.44018 | 2.22490 | 21800 ft | 388 kts | 325° |
| 2026-05-06 18:55 | 42.46290 | 2.20499 | 22311 ft | 390 kts | 324° |
| 2026-05-06 18:55 | 42.48564 | 2.18475 | 22818 ft | 393 kts | 324° |
| 2026-05-06 18:56 | 42.50844 | 2.16417 | 23319 ft | 395 kts | 324° |
| 2026-05-06 18:56 | 42.53136 | 2.14327 | 23751 ft | 398 kts | 324° |
| 2026-05-06 18:56 | 42.55433 | 2.12220 | 24174 ft | 400 kts | 323° |
| 2026-05-06 18:56 | 42.57716 | 2.10135 | 24586 ft | 402 kts | 324° |
| 2026-05-06 18:57 | 42.60093 | 2.08111 | 24988 ft | 405 kts | 326° |
| 2026-05-06 18:57 | 42.62532 | 2.06178 | 25392 ft | 407 kts | 327° |
| 2026-05-06 18:57 | 42.65011 | 2.04295 | 25801 ft | 410 kts | 327° |
| 2026-05-06 18:57 | 42.67517 | 2.02420 | 26202 ft | 412 kts | 327° |
| 2026-05-06 18:58 | 42.70024 | 2.00530 | 26591 ft | 413 kts | 327° |
| 2026-05-06 18:58 | 42.72536 | 1.98602 | 26961 ft | 415 kts | 326° |
| 2026-05-06 18:58 | 42.75047 | 1.96644 | 27348 ft | 417 kts | 326° |
| 2026-05-06 18:58 | 42.77563 | 1.94665 | 27728 ft | 418 kts | 325° |
| 2026-05-06 18:59 | 42.80089 | 1.92674 | 28101 ft | 421 kts | 325° |
| 2026-05-06 18:59 | 42.82628 | 1.90673 | 28467 ft | 423 kts | 325° |
| 2026-05-06 18:59 | 42.85184 | 1.88660 | 28835 ft | 425 kts | 325° |
| 2026-05-06 18:59 | 42.87743 | 1.86646 | 29185 ft | 426 kts | 325° |
| 2026-05-06 19:00 | 42.90318 | 1.84618 | 29521 ft | 428 kts | 326° |
| 2026-05-06 19:00 | 42.92907 | 1.82580 | 29853 ft | 430 kts | 326° |
| 2026-05-06 19:00 | 42.95510 | 1.80531 | 30169 ft | 432 kts | 326° |
| 2026-05-06 19:00 | 42.97238 | 1.79166 | 30357 ft | 433 kts | 326° |
| 2026-05-06 19:01 | 43.00742 | 1.76393 | 30721 ft | 436 kts | 326° |
| 2026-05-06 19:01 | 43.03367 | 1.74311 | 31061 ft | 436 kts | 326° |
| 2026-05-06 19:01 | 43.05991 | 1.72230 | 31452 ft | 435 kts | 326° |
| 2026-05-06 19:01 | 43.08610 | 1.70153 | 31832 ft | 435 kts | 325° |
| 2026-05-06 19:02 | 43.10342 | 1.68779 | 32060 ft | 435 kts | 325° |
| 2026-05-06 19:02 | 43.12957 | 1.66704 | 32416 ft | 435 kts | 325° |
| 2026-05-06 19:02 | 43.16428 | 1.63948 | 32884 ft | 434 kts | 325° |
| 2026-05-06 19:02 | 43.19040 | 1.61865 | 33231 ft | 434 kts | 325° |
| 2026-05-06 19:03 | 43.21653 | 1.59777 | 33576 ft | 434 kts | 325° |
| 2026-05-06 19:03 | 43.24265 | 1.57692 | 33908 ft | 435 kts | 325° |
| 2026-05-06 19:03 | 43.26028 | 1.56283 | 33984 ft | 433 kts | 325° |
| 2026-05-06 19:04 | 43.31133 | 1.52199 | 34008 ft | 424 kts | 325° |
| 2026-05-06 19:04 | 43.36215 | 1.48131 | 33997 ft | 422 kts | 325° |
| 2026-05-06 19:05 | 43.41286 | 1.44062 | 33992 ft | 422 kts | 325° |
| 2026-05-06 19:05 | 43.46351 | 1.39987 | 33985 ft | 421 kts | 326° |
| 2026-05-06 19:06 | 43.51411 | 1.35906 | 34007 ft | 422 kts | 326° |
| 2026-05-06 19:06 | 43.56476 | 1.31815 | 34006 ft | 421 kts | 326° |
| 2026-05-06 19:07 | 43.61531 | 1.27725 | 34007 ft | 421 kts | 326° |
| 2026-05-06 19:07 | 43.66583 | 1.23634 | 34004 ft | 421 kts | 326° |
| 2026-05-06 19:08 | 43.71633 | 1.19534 | 33996 ft | 421 kts | 326° |
| 2026-05-06 19:08 | 43.76678 | 1.15424 | 33997 ft | 421 kts | 326° |
| 2026-05-06 19:09 | 43.81725 | 1.11295 | 33994 ft | 421 kts | 326° |
| 2026-05-06 19:09 | 43.86745 | 1.07183 | 33989 ft | 422 kts | 326° |
| 2026-05-06 19:10 | 43.91798 | 1.03049 | 33996 ft | 422 kts | 327° |
| 2026-05-06 19:10 | 43.96848 | 0.98914 | 34003 ft | 422 kts | 327° |
| 2026-05-06 19:11 | 44.01902 | 0.94772 | 33993 ft | 421 kts | 327° |
| 2026-05-06 19:11 | 44.06941 | 0.90621 | 34006 ft | 421 kts | 327° |
| 2026-05-06 19:12 | 44.11976 | 0.86458 | 34008 ft | 421 kts | 327° |
| 2026-05-06 19:12 | 44.17002 | 0.82286 | 34008 ft | 420 kts | 327° |
| 2026-05-06 19:13 | 44.22023 | 0.78129 | 34005 ft | 420 kts | 327° |
| 2026-05-06 19:13 | 44.27053 | 0.73967 | 34003 ft | 420 kts | 327° |
| 2026-05-06 19:14 | 44.32074 | 0.69791 | 34000 ft | 420 kts | 327° |
| 2026-05-06 19:14 | 44.37049 | 0.65632 | 33997 ft | 420 kts | 327° |
| 2026-05-06 19:15 | 44.42060 | 0.61445 | 33997 ft | 419 kts | 327° |
| 2026-05-06 19:15 | 44.47071 | 0.57249 | 33993 ft | 419 kts | 327° |
| 2026-05-06 19:16 | 44.52073 | 0.53051 | 33987 ft | 419 kts | 327° |
| 2026-05-06 19:16 | 44.57073 | 0.48850 | 33990 ft | 419 kts | 327° |
| 2026-05-06 19:17 | 44.62068 | 0.44650 | 33985 ft | 418 kts | 327° |
| 2026-05-06 19:17 | 44.67055 | 0.40442 | 33982 ft | 418 kts | 327° |
| 2026-05-06 19:18 | 44.72037 | 0.36224 | 33983 ft | 418 kts | 327° |
| 2026-05-06 19:18 | 44.77008 | 0.32004 | 33976 ft | 417 kts | 327° |
| 2026-05-06 19:19 | 44.81974 | 0.27788 | 33975 ft | 417 kts | 327° |
| 2026-05-06 19:19 | 44.86901 | 0.23600 | 33972 ft | 416 kts | 327° |
| 2026-05-06 19:20 | 44.91861 | 0.19376 | 33972 ft | 416 kts | 327° |
| 2026-05-06 19:20 | 44.96807 | 0.15143 | 33971 ft | 416 kts | 327° |
| 2026-05-06 19:21 | 45.01755 | 0.10902 | 33972 ft | 415 kts | 327° |
| 2026-05-06 19:21 | 45.06705 | 0.06663 | 33975 ft | 415 kts | 327° |
| 2026-05-06 19:22 | 45.11643 | 0.02421 | 33973 ft | 415 kts | 327° |
| 2026-05-06 19:22 | 45.16571 | -0.01828 | 33977 ft | 415 kts | 327° |
| 2026-05-06 19:23 | 45.21502 | -0.06081 | 33977 ft | 414 kts | 327° |
| 2026-05-06 19:23 | 45.26423 | -0.10339 | 33980 ft | 414 kts | 327° |
| 2026-05-06 19:24 | 45.31345 | -0.14603 | 33974 ft | 414 kts | 327° |
| 2026-05-06 19:24 | 45.36227 | -0.18838 | 33971 ft | 414 kts | 327° |
| 2026-05-06 19:25 | 45.41139 | -0.23121 | 33969 ft | 414 kts | 327° |
| 2026-05-06 19:25 | 45.46046 | -0.27413 | 33961 ft | 414 kts | 327° |
| 2026-05-06 19:26 | 45.50957 | -0.31694 | 33966 ft | 414 kts | 327° |
| 2026-05-06 19:26 | 45.55874 | -0.35989 | 33972 ft | 414 kts | 327° |
| 2026-05-06 19:27 | 45.60794 | -0.40304 | 33966 ft | 414 kts | 327° |
| 2026-05-06 19:27 | 45.65673 | -0.44597 | 33971 ft | 414 kts | 327° |
| 2026-05-06 19:28 | 45.70579 | -0.48924 | 33964 ft | 414 kts | 327° |
| 2026-05-06 19:28 | 45.75480 | -0.53266 | 33963 ft | 414 kts | 327° |
| 2026-05-06 19:29 | 45.80383 | -0.57605 | 33963 ft | 414 kts | 327° |
| 2026-05-06 19:29 | 45.85262 | -0.61923 | 33972 ft | 414 kts | 327° |
| 2026-05-06 19:30 | 45.90167 | -0.66279 | 33980 ft | 414 kts | 327° |
| 2026-05-06 19:30 | 45.95080 | -0.70651 | 33976 ft | 415 kts | 327° |
| 2026-05-06 19:31 | 45.99982 | -0.75023 | 33976 ft | 415 kts | 327° |
| 2026-05-06 19:31 | 46.07333 | -0.81608 | 33978 ft | 415 kts | 327° |
| 2026-05-06 19:32 | 46.12235 | -0.86009 | 33986 ft | 415 kts | 327° |
| 2026-05-06 19:32 | 46.17134 | -0.90412 | 33989 ft | 415 kts | 327° |
| 2026-05-06 19:33 | 46.22249 | -0.94276 | 33983 ft | 416 kts | 340° |
| 2026-05-06 19:33 | 46.27886 | -0.96195 | 33978 ft | 417 kts | 347° |
| 2026-05-06 19:34 | 46.33572 | -0.97924 | 33984 ft | 417 kts | 347° |
| 2026-05-06 19:34 | 46.39256 | -0.99670 | 33980 ft | 418 kts | 347° |
| 2026-05-06 19:35 | 46.44908 | -1.01417 | 33973 ft | 418 kts | 347° |
| 2026-05-06 19:35 | 46.50598 | -1.03178 | 33977 ft | 418 kts | 347° |
| 2026-05-06 19:36 | 46.56300 | -1.04932 | 33979 ft | 418 kts | 347° |
| 2026-05-06 19:36 | 46.61990 | -1.06692 | 33983 ft | 418 kts | 347° |
| 2026-05-06 19:37 | 46.67682 | -1.08461 | 33988 ft | 418 kts | 347° |
| 2026-05-06 19:37 | 46.72413 | -1.09932 | 33991 ft | 418 kts | 347° |
| 2026-05-06 19:38 | 46.79074 | -1.12008 | 33985 ft | 419 kts | 347° |
| 2026-05-06 19:38 | 46.84768 | -1.13792 | 33990 ft | 419 kts | 347° |
| 2026-05-06 19:39 | 46.90461 | -1.15576 | 33987 ft | 419 kts | 347° |
| 2026-05-06 19:39 | 46.96154 | -1.17364 | 33992 ft | 418 kts | 347° |
| 2026-05-06 19:40 | 47.01848 | -1.19148 | 33978 ft | 418 kts | 347° |
| 2026-05-06 19:40 | 47.07543 | -1.20934 | 33985 ft | 418 kts | 347° |
| 2026-05-06 19:41 | 47.13195 | -1.22716 | 33984 ft | 418 kts | 347° |
| 2026-05-06 19:41 | 47.18888 | -1.24517 | 33987 ft | 419 kts | 347° |
| 2026-05-06 19:42 | 47.24586 | -1.26333 | 33980 ft | 419 kts | 347° |
| 2026-05-06 19:42 | 47.30280 | -1.28149 | 33987 ft | 418 kts | 347° |
| 2026-05-06 19:43 | 47.35970 | -1.29957 | 33980 ft | 418 kts | 347° |
| 2026-05-06 19:43 | 47.41667 | -1.31762 | 33988 ft | 418 kts | 347° |
| 2026-05-06 19:44 | 47.47352 | -1.33580 | 33984 ft | 418 kts | 347° |
| 2026-05-06 19:44 | 47.53005 | -1.35398 | 33977 ft | 418 kts | 347° |
| 2026-05-06 19:45 | 47.58697 | -1.37224 | 33988 ft | 419 kts | 347° |
| 2026-05-06 19:45 | 47.64391 | -1.39055 | 33987 ft | 419 kts | 347° |
| 2026-05-06 19:46 | 47.70089 | -1.40892 | 33991 ft | 419 kts | 349° |
| 2026-05-06 19:46 | 47.75913 | -1.41577 | 33984 ft | 420 kts | 356° |
| 2026-05-06 19:47 | 47.81757 | -1.42011 | 33987 ft | 421 kts | 356° |
| 2026-05-06 19:47 | 47.87608 | -1.42445 | 33982 ft | 421 kts | 356° |
| 2026-05-06 19:48 | 47.93470 | -1.42891 | 33985 ft | 422 kts | 356° |
| 2026-05-06 19:48 | 47.99335 | -1.43344 | 33985 ft | 422 kts | 356° |
| 2026-05-06 19:49 | 48.05209 | -1.43780 | 33987 ft | 423 kts | 356° |
| 2026-05-06 19:49 | 48.11094 | -1.44202 | 33987 ft | 423 kts | 356° |
| 2026-05-06 19:50 | 48.16943 | -1.44617 | 33991 ft | 424 kts | 356° |
| 2026-05-06 19:50 | 48.22835 | -1.45042 | 33995 ft | 424 kts | 356° |
| 2026-05-06 19:51 | 48.28739 | -1.45459 | 33998 ft | 425 kts | 356° |
| 2026-05-06 19:51 | 48.34651 | -1.45873 | 34001 ft | 425 kts | 356° |
| 2026-05-06 19:52 | 48.39565 | -1.46231 | 34004 ft | 425 kts | 356° |
| 2026-05-06 19:52 | 48.46433 | -1.46730 | 34008 ft | 425 kts | 356° |
| 2026-05-06 19:53 | 48.51339 | -1.47086 | 34004 ft | 425 kts | 356° |
| 2026-05-06 19:53 | 48.57241 | -1.47528 | 34003 ft | 424 kts | 356° |
| 2026-05-06 19:54 | 48.63144 | -1.47967 | 34004 ft | 424 kts | 356° |
| 2026-05-06 19:54 | 48.69045 | -1.48397 | 34008 ft | 425 kts | 356° |
| 2026-05-06 19:55 | 48.74956 | -1.48813 | 34004 ft | 425 kts | 356° |
| 2026-05-06 19:55 | 48.80864 | -1.49238 | 34007 ft | 425 kts | 356° |
| 2026-05-06 19:56 | 48.86768 | -1.49679 | 34009 ft | 425 kts | 356° |
| 2026-05-06 19:56 | 48.92608 | -1.50767 | 34008 ft | 423 kts | 347° |
| 2026-05-06 19:57 | 48.98329 | -1.52624 | 34004 ft | 423 kts | 347° |
| 2026-05-06 19:57 | 49.04091 | -1.54475 | 34006 ft | 423 kts | 347° |
| 2026-05-06 19:58 | 49.09873 | -1.56330 | 33987 ft | 426 kts | 347° |
| 2026-05-06 19:58 | 49.15688 | -1.58209 | 33981 ft | 428 kts | 347° |
| 2026-05-06 19:59 | 49.21537 | -1.60095 | 33987 ft | 430 kts | 347° |
| 2026-05-06 19:59 | 49.27367 | -1.61980 | 33995 ft | 431 kts | 347° |
| 2026-05-06 20:00 | 49.33243 | -1.63889 | 34002 ft | 432 kts | 347° |
| 2026-05-06 20:00 | 49.39129 | -1.65814 | 34003 ft | 432 kts | 346° |
| 2026-05-06 20:01 | 49.45014 | -1.67739 | 34012 ft | 433 kts | 347° |
| 2026-05-06 20:01 | 49.50908 | -1.69665 | 34018 ft | 433 kts | 346° |
| 2026-05-06 20:02 | 49.56824 | -1.71412 | 34018 ft | 434 kts | 354° |
| 2026-05-06 20:02 | 49.62846 | -1.70707 | 34014 ft | 438 kts | 13° |
| 2026-05-06 20:03 | 49.68578 | -1.67666 | 34017 ft | 439 kts | 18° |
| 2026-05-06 20:03 | 49.74348 | -1.64489 | 33559 ft | 442 kts | 18° |
| 2026-05-06 20:04 | 49.77235 | -1.62902 | 33270 ft | 440 kts | 18° |
| 2026-05-06 20:04 | 49.80124 | -1.61307 | 32997 ft | 442 kts | 18° |
| 2026-05-06 20:04 | 49.83021 | -1.59702 | 32717 ft | 442 kts | 18° |
| 2026-05-06 20:04 | 49.85927 | -1.58085 | 32006 ft | 444 kts | 18° |
| 2026-05-06 20:05 | 49.88817 | -1.56469 | 31464 ft | 440 kts | 18° |
| 2026-05-06 20:05 | 49.91685 | -1.54865 | 30890 ft | 437 kts | 18° |
| 2026-05-06 20:05 | 49.94540 | -1.53268 | 30319 ft | 435 kts | 18° |
| 2026-05-06 20:05 | 49.97379 | -1.51679 | 29699 ft | 433 kts | 18° |
| 2026-05-06 20:06 | 50.00200 | -1.50102 | 29142 ft | 428 kts | 18° |
| 2026-05-06 20:06 | 50.03005 | -1.48615 | 28597 ft | 423 kts | 17° |
| 2026-05-06 20:06 | 50.05799 | -1.47234 | 28057 ft | 419 kts | 15° |
| 2026-05-06 20:06 | 50.08573 | -1.45918 | 27526 ft | 415 kts | 15° |
| 2026-05-06 20:07 | 50.11330 | -1.44627 | 26993 ft | 412 kts | 15° |
| 2026-05-06 20:07 | 50.14060 | -1.43340 | 26474 ft | 408 kts | 15° |
| 2026-05-06 20:07 | 50.16763 | -1.42044 | 25964 ft | 404 kts | 15° |
| 2026-05-06 20:07 | 50.19435 | -1.40740 | 25459 ft | 401 kts | 16° |
| 2026-05-06 20:08 | 50.22086 | -1.39427 | 24978 ft | 397 kts | 16° |
| 2026-05-06 20:08 | 50.24709 | -1.38125 | 24493 ft | 394 kts | 16° |
| 2026-05-06 20:08 | 50.27316 | -1.36837 | 24032 ft | 391 kts | 16° |
| 2026-05-06 20:08 | 50.29866 | -1.35577 | 23578 ft | 387 kts | 16° |
| 2026-05-06 20:09 | 50.32420 | -1.34319 | 23080 ft | 383 kts | 16° |
| 2026-05-06 20:09 | 50.34942 | -1.33075 | 22661 ft | 377 kts | 16° |
| 2026-05-06 20:09 | 50.37427 | -1.31848 | 22228 ft | 372 kts | 16° |
| 2026-05-06 20:09 | 50.39879 | -1.30633 | 21813 ft | 367 kts | 16° |
| 2026-05-06 20:10 | 50.42303 | -1.29428 | 21398 ft | 363 kts | 16° |
| 2026-05-06 20:10 | 50.44698 | -1.28239 | 20976 ft | 359 kts | 16° |
| 2026-05-06 20:10 | 50.47074 | -1.27061 | 20549 ft | 356 kts | 16° |
| 2026-05-06 20:10 | 50.49384 | -1.25712 | 20132 ft | 354 kts | 24° |
| 2026-05-06 20:11 | 50.51506 | -1.23770 | 19708 ft | 353 kts | 34° |
| 2026-05-06 20:11 | 50.53409 | -1.21349 | 19277 ft | 351 kts | 39° |
| 2026-05-06 20:11 | 50.55272 | -1.18885 | 18843 ft | 349 kts | 39° |
| 2026-05-06 20:11 | 50.57101 | -1.16361 | 18231 ft | 353 kts | 47° |
| 2026-05-06 20:12 | 50.58452 | -1.13084 | 17454 ft | 361 kts | 64° |
| 2026-05-06 20:12 | 50.59517 | -1.09504 | 16970 ft | 361 kts | 64° |
| 2026-05-06 20:12 | 50.60580 | -1.05918 | 16704 ft | 362 kts | 64° |
| 2026-05-06 20:12 | 50.61641 | -1.02337 | 16401 ft | 359 kts | 64° |
| 2026-05-06 20:13 | 50.62695 | -0.98785 | 15945 ft | 356 kts | 64° |
| 2026-05-06 20:13 | 50.63741 | -0.95260 | 15497 ft | 354 kts | 64° |
| 2026-05-06 20:13 | 50.64764 | -0.91814 | 15063 ft | 351 kts | 64° |
| 2026-05-06 20:13 | 50.65793 | -0.88342 | 14643 ft | 348 kts | 64° |
| 2026-05-06 20:14 | 50.66824 | -0.84842 | 14198 ft | 346 kts | 64° |
| 2026-05-06 20:14 | 50.67831 | -0.81422 | 13789 ft | 343 kts | 64° |
| 2026-05-06 20:14 | 50.68830 | -0.78017 | 13436 ft | 341 kts | 64° |
| 2026-05-06 20:14 | 50.69823 | -0.74626 | 13168 ft | 341 kts | 64° |
| 2026-05-06 20:15 | 50.70799 | -0.71284 | 12905 ft | 340 kts | 64° |
| 2026-05-06 20:15 | 50.71799 | -0.67857 | 12638 ft | 338 kts | 64° |
| 2026-05-06 20:15 | 50.72782 | -0.64492 | 12375 ft | 337 kts | 64° |
| 2026-05-06 20:15 | 50.73761 | -0.61141 | 12118 ft | 336 kts | 64° |
| 2026-05-06 20:16 | 50.74783 | -0.57901 | 11834 ft | 331 kts | 54° |
| 2026-05-06 20:16 | 50.76221 | -0.55177 | 11693 ft | 317 kts | 46° |
| 2026-05-06 20:16 | 50.77675 | -0.52654 | 11550 ft | 302 kts | 46° |
| 2026-05-06 20:16 | 50.78907 | -0.50518 | 11172 ft | 294 kts | 46° |
| 2026-05-06 20:17 | 50.80280 | -0.48134 | 10615 ft | 290 kts | 46° |
| 2026-05-06 20:17 | 50.81631 | -0.45786 | 10034 ft | 287 kts | 46° |
| 2026-05-06 20:17 | 50.82966 | -0.43463 | 9403 ft | 284 kts | 46° |
| 2026-05-06 20:17 | 50.84287 | -0.41166 | 8754 ft | 280 kts | 46° |
| 2026-05-06 20:18 | 50.85606 | -0.38874 | 8335 ft | 280 kts | 46° |
| 2026-05-06 20:18 | 50.86912 | -0.36606 | 7972 ft | 277 kts | 46° |
| 2026-05-06 20:18 | 50.88209 | -0.34356 | 7595 ft | 276 kts | 46° |
| 2026-05-06 20:18 | 50.89498 | -0.32122 | 7234 ft | 274 kts | 46° |
| 2026-05-06 20:19 | 50.90783 | -0.29899 | 6888 ft | 273 kts | 46° |
| 2026-05-06 20:19 | 50.92101 | -0.27758 | 6565 ft | 270 kts | 36° |
| 2026-05-06 20:19 | 50.93778 | -0.26557 | 6296 ft | 265 kts | 7° |
| 2026-05-06 20:19 | 50.95593 | -0.26785 | 6065 ft | 263 kts | 339° |
| 2026-05-06 20:20 | 50.97134 | -0.28311 | 5825 ft | 263 kts | 319° |
| 2026-05-06 20:20 | 50.98469 | -0.30251 | 5597 ft | 257 kts | 316° |
| 2026-05-06 20:20 | 50.99740 | -0.32173 | 5468 ft | 247 kts | 316° |
| 2026-05-06 20:20 | 51.00957 | -0.34029 | 5354 ft | 238 kts | 316° |
| 2026-05-06 20:21 | 51.02130 | -0.35823 | 5202 ft | 231 kts | 316° |
| 2026-05-06 20:21 | 51.03280 | -0.37586 | 4978 ft | 229 kts | 316° |
| 2026-05-06 20:21 | 51.04424 | -0.39344 | 4741 ft | 228 kts | 316° |
| 2026-05-06 20:21 | 51.05562 | -0.41097 | 4486 ft | 225 kts | 315° |
| 2026-05-06 20:22 | 51.06521 | -0.42965 | 4310 ft | 216 kts | 307° |
| 2026-05-06 20:22 | 51.07374 | -0.44854 | 4185 ft | 203 kts | 306° |
| 2026-05-06 20:22 | 51.08279 | -0.46423 | 4037 ft | 187 kts | 330° |
| 2026-05-06 20:22 | 51.09512 | -0.46855 | 3794 ft | 184 kts | 5° |
| 2026-05-06 20:23 | 51.10665 | -0.46052 | 3492 ft | 183 kts | 41° |
| 2026-05-06 20:23 | 51.11296 | -0.44316 | 3271 ft | 185 kts | 73° |
| 2026-05-06 20:23 | 51.11570 | -0.42363 | 3029 ft | 178 kts | 76° |
| 2026-05-06 20:23 | 51.11830 | -0.40475 | 2789 ft | 171 kts | 75° |
| 2026-05-06 20:24 | 51.12083 | -0.38658 | 2562 ft | 166 kts | 75° |
| 2026-05-06 20:24 | 51.12331 | -0.36883 | 2340 ft | 163 kts | 75° |
| 2026-05-06 20:24 | 51.12576 | -0.35127 | 2115 ft | 161 kts | 75° |
| 2026-05-06 20:24 | 51.12819 | -0.33393 | 1900 ft | 160 kts | 75° |
| 2026-05-06 20:25 | 51.13059 | -0.31675 | 1705 ft | 158 kts | 74° |
| 2026-05-06 20:25 | 51.13296 | -0.29978 | 1479 ft | 154 kts | 75° |
| 2026-05-06 20:25 | 51.13518 | -0.28388 | 1258 ft | 143 kts | 75° |
| 2026-05-06 20:25 | 51.13730 | -0.26861 | 1040 ft | 140 kts | 75° |
| 2026-05-06 20:26 | 51.13938 | -0.25364 | 836 ft | 138 kts | 76° |
| 2026-05-06 20:26 | 51.14145 | -0.23874 | 649 ft | 137 kts | 77° |
| 2026-05-06 20:26 | 51.14350 | -0.22397 | 466 ft | 136 kts | 78° |
| 2026-05-06 20:26 | 51.14553 | -0.20927 | 295 ft | 136 kts | 77° |
| 2026-05-06 20:27 | 51.14748 | -0.19519 | 213 ft | 121 kts | 78° |
| 2026-05-06 20:27 | 51.14882 | -0.18543 | 209 ft | 64 kts | 78° |
| 2026-05-06 20:27 | 51.14947 | -0.18094 | 210 ft | 29 kts | 73° |
| 2026-05-06 20:27 | 51.15036 | -0.17843 | 214 ft | 24 kts | 52° |
| 2026-05-06 20:28 | 51.15096 | -0.17758 | 209 ft | 7 kts | 4° |
| 2026-05-06 20:28 | 51.15145 | -0.17766 | 205 ft | 7 kts | 354° |
| 2026-05-06 20:28 | 51.15178 | -0.17772 | 216 ft | 1 kts | 352° |
| 2026-05-06 20:28 | 51.15183 | -0.17773 | 215 ft | 1 kts | 352° |
| 2026-05-06 20:29 | 51.15184 | -0.17773 | 215 ft | 0 kts | 352° |
| 2026-05-06 20:29 | 51.15187 | -0.17774 | 214 ft | 0 kts | 352° |
| 2026-05-06 20:31 | 51.15202 | -0.17777 | 210 ft | 7 kts | 352° |
| 2026-05-06 20:32 | 51.15254 | -0.17753 | 210 ft | 9 kts | 51° |
| 2026-05-06 20:32 | 51.15278 | -0.17621 | 211 ft | 13 kts | 77° |
| 2026-05-06 20:32 | 51.15295 | -0.17482 | 208 ft | 13 kts | 80° |
| 2026-05-06 20:32 | 51.15327 | -0.17377 | 213 ft | 11 kts | 29° |
| 2026-05-06 20:33 | 51.15369 | -0.17289 | 212 ft | 10 kts | 69° |
| 2026-05-06 20:33 | 51.15394 | -0.17184 | 210 ft | 10 kts | 66° |
| 2026-05-06 20:33 | 51.15414 | -0.17079 | 205 ft | 10 kts | 77° |
| 2026-05-06 20:33 | 51.15429 | -0.16973 | 205 ft | 10 kts | 77° |
| 2026-05-06 20:34 | 51.15443 | -0.16894 | 205 ft | 5 kts | 57° |
| 2026-05-06 20:34 | 51.15461 | -0.16894 | 207 ft | 2 kts | 346° |
| 2026-05-06 20:34 | 51.15476 | -0.16899 | 208 ft | 2 kts | 347° |
| 2026-05-06 20:34 | 51.15486 | -0.16903 | 209 ft | 1 kts | 347° |
| 2026-05-06 20:35 | 51.15492 | -0.16905 | 213 ft | 1 kts | 347° |
| 2026-05-06 20:35 | 51.15494 | -0.16906 | 212 ft | 0 kts | 347° |